Time;durP1;ratioP1;P1;durP2;ratioP2;P2;SDS_P1;SDS_P2;PMS_P1;PMS_P2;Temp;Humidity;BMP_temperature;BMP_pressure;BME280_temperature;BME280_humidity;BME280_pressure;Samples;Min_cycle;Max_cycle;Signal;HPM_P1;HPM_P2
2023/10/16 00:00:47;;;;;;;3.97;0.95;;;7.60;99.90;;;;;;4967509;28;20042;-42
2023/10/16 00:03:13;;;;;;;6.72;1.33;;;7.60;99.90;;;;;;4983970;28;20492;-41
2023/10/16 00:05:45;;;;;;;5.45;1.25;;;7.60;99.90;;;;;;5001155;28;20465;-43
2023/10/16 00:08:16;;;;;;;6.00;1.60;;;7.60;99.90;;;;;;5001237;28;20476;-41
2023/10/16 00:10:43;;;;;;;2.63;1.08;;;7.60;99.90;;;;;;5001616;28;20049;-41
2023/10/16 00:13:12;;;;;;;7.25;1.45;;;7.60;99.90;;;;;;5002034;28;20529;-42
2023/10/16 00:15:44;;;;;;;4.35;1.10;;;7.60;99.90;;;;;;5001563;28;20494;-42
2023/10/16 00:18:16;;;;;;;7.82;2.28;;;7.60;99.90;;;;;;4983452;28;20429;-42
2023/10/16 00:20:42;;;;;;;6.25;1.70;;;7.50;99.90;;;;;;4967219;28;20545;-41
2023/10/16 00:23:11;;;;;;;5.05;1.00;;;7.60;99.90;;;;;;5002180;28;20160;-42
2023/10/16 00:25:40;;;;;;;4.93;0.90;;;7.60;99.90;;;;;;5001114;28;20129;-41
2023/10/16 00:28:10;;;;;;;6.78;1.20;;;7.50;99.90;;;;;;5001074;28;20085;-42
2023/10/16 00:30:38;;;;;;;4.85;1.00;;;7.50;99.90;;;;;;4988682;28;20056;-43
2023/10/16 00:33:06;;;;;;;5.28;1.08;;;7.40;99.90;;;;;;5000558;28;20046;-41
2023/10/16 00:35:32;;;;;;;5.28;1.08;;;7.40;99.90;;;;;;5000845;28;20440;-41
2023/10/16 00:37:58;;;;;;;3.22;1.30;;;7.30;99.90;;;;;;4992927;28;20050;-41
2023/10/16 00:40:33;;;;;;;4.50;1.08;;;7.30;99.90;;;;;;5001381;28;20420;-42
2023/10/16 00:43:12;;;;;;;4.43;0.95;;;7.30;99.90;;;;;;5000843;28;20038;-42
2023/10/16 00:45:49;;;;;;;3.90;1.20;;;7.30;99.90;;;;;;5000983;28;20041;-41
2023/10/16 00:48:17;;;;;;;4.10;1.00;;;7.20;99.90;;;;;;4982549;28;20127;-41
2023/10/16 00:50:44;;;;;;;4.10;1.08;;;7.20;99.90;;;;;;4967283;28;20667;-41
2023/10/16 00:53:13;;;;;;;3.67;1.20;;;7.20;99.90;;;;;;5000360;28;20543;-41
2023/10/16 00:55:39;;;;;;;2.35;0.88;;;7.30;99.90;;;;;;5000238;28;20045;-41
2023/10/16 00:58:06;;;;;;;3.20;1.00;;;7.30;99.90;;;;;;4982221;28;20412;-42
2023/10/16 01:00:37;;;;;;;6.13;1.55;;;7.40;99.90;;;;;;5000945;28;20124;-41
2023/10/16 01:03:05;;;;;;;6.60;1.33;;;7.40;99.90;;;;;;5001130;28;20034;-42
2023/10/16 01:05:33;;;;;;;5.43;1.20;;;7.40;99.90;;;;;;4983115;28;20156;-41
2023/10/16 01:08:00;;;;;;;2.95;1.02;;;7.50;99.90;;;;;;5001185;28;20042;-42
2023/10/16 01:10:27;;;;;;;6.22;1.23;;;7.50;99.90;;;;;;4999610;28;20053;-42
2023/10/16 01:12:56;;;;;;;3.75;1.13;;;7.50;99.90;;;;;;5001048;28;20088;-43
2023/10/16 01:15:22;;;;;;;7.95;1.67;;;7.60;99.90;;;;;;5000155;28;20042;-40
2023/10/16 01:17:48;;;;;;;3.70;1.35;;;7.50;99.90;;;;;;5000480;28;20076;-41
2023/10/16 01:20:18;;;;;;;3.20;1.27;;;7.50;99.90;;;;;;5000047;28;20500;-42
2023/10/16 01:22:52;;;;;;;5.28;1.30;;;7.50;99.90;;;;;;5000326;28;20038;-42
2023/10/16 01:25:18;;;;;;;6.80;1.30;;;7.60;99.90;;;;;;4982017;28;20049;-41
2023/10/16 01:27:44;;;;;;;4.93;1.75;;;7.60;99.90;;;;;;4982131;28;20057;-42
2023/10/16 01:30:11;;;;;;;7.82;1.25;;;7.60;99.90;;;;;;5000868;28;20046;-41
2023/10/16 01:32:40;;;;;;;4.68;1.33;;;7.60;99.90;;;;;;4982753;28;20042;-41
2023/10/16 01:35:08;;;;;;;3.55;1.30;;;7.60;99.90;;;;;;4981627;28;20103;-42
2023/10/16 01:37:38;;;;;;;5.60;1.60;;;7.60;99.90;;;;;;4994026;28;20896;-41
2023/10/16 01:40:25;;;;;;;4.78;1.42;;;7.70;99.90;;;;;;4999951;28;20049;-42
2023/10/16 01:42:54;;;;;;;5.22;1.33;;;7.70;99.90;;;;;;4999828;28;20544;-43
2023/10/16 01:45:23;;;;;;;4.25;1.35;;;7.70;99.90;;;;;;4999619;28;20081;-42
2023/10/16 01:47:49;;;;;;;4.25;1.17;;;7.70;99.90;;;;;;4999238;28;20060;-41
2023/10/16 01:50:23;;;;;;;4.30;1.67;;;7.70;99.90;;;;;;5000179;28;20404;-43
2023/10/16 01:52:49;;;;;;;7.47;2.17;;;7.70;99.90;;;;;;5000219;28;20127;-41
2023/10/16 01:55:26;;;;;;;4.82;0.90;;;7.70;99.90;;;;;;4981994;28;20061;-43
2023/10/16 01:57:51;;;;;;;9.50;1.00;;;7.70;99.90;;;;;;4999322;28;20099;-41
2023/10/16 02:00:18;;;;;;;5.05;1.05;;;7.70;99.90;;;;;;5000168;28;20054;-40
2023/10/16 02:02:45;;;;;;;8.60;1.02;;;7.70;99.90;;;;;;4983039;28;20213;-42
2023/10/16 02:05:13;;;;;;;5.47;0.98;;;7.70;99.90;;;;;;5000033;28;20041;-42
2023/10/16 02:07:41;;;;;;;4.90;1.00;;;7.70;99.90;;;;;;4972182;28;20123;-44
2023/10/16 02:10:12;;;;;;;4.28;1.13;;;7.70;99.90;;;;;;5006485;28;20754;-42
2023/10/16 02:12:41;;;;;;;5.07;0.90;;;7.70;99.90;;;;;;5004136;28;20045;-43
2023/10/16 02:15:08;;;;;;;4.45;0.90;;;7.70;99.90;;;;;;5003733;28;20053;-41
2023/10/16 02:17:37;;;;;;;4.85;1.17;;;7.70;99.90;;;;;;5003882;28;20116;-41
2023/10/16 02:20:11;;;;;;;4.35;1.95;;;7.70;99.90;;;;;;4985996;28;20054;-42
2023/10/16 02:22:38;;;;;;;2.88;1.25;;;7.70;99.90;;;;;;4985889;28;20151;-41
2023/10/16 02:25:08;;;;;;;3.58;0.93;;;7.60;99.90;;;;;;5003080;28;20474;-42
2023/10/16 02:27:35;;;;;;;5.28;0.98;;;7.60;99.90;;;;;;5003126;28;20042;-41
2023/10/16 02:32:46;;;;;;;2.70;1.08;;;7.60;99.90;;;;;;5003507;28;20049;-42
2023/10/16 02:35:13;;;;;;;4.93;0.95;;;7.60;99.90;;;;;;5003241;28;20508;-43
2023/10/16 02:37:40;;;;;;;5.22;1.35;;;7.50;99.90;;;;;;4978775;28;20046;-41
2023/10/16 02:40:11;;;;;;;2.60;1.10;;;7.50;99.90;;;;;;5002883;28;20509;-41
2023/10/16 02:42:40;;;;;;;5.95;1.20;;;7.50;99.90;;;;;;5003629;28;20353;-41
2023/10/16 02:45:24;;;;;;;5.82;1.13;;;7.50;99.90;;;;;;5003900;28;20037;-41
2023/10/16 02:47:49;;;;;;;4.20;1.20;;;7.60;99.90;;;;;;4985420;28;20393;-41
2023/10/16 02:50:15;;;;;;;4.97;1.00;;;7.60;99.90;;;;;;4975518;28;20517;-44
2023/10/16 02:52:41;;;;;;;3.60;1.02;;;7.60;99.90;;;;;;4985314;28;20050;-42
2023/10/16 02:55:07;;;;;;;5.35;1.20;;;7.70;99.90;;;;;;5003039;28;20049;-42
2023/10/16 02:57:32;;;;;;;6.10;1.15;;;7.70;99.90;;;;;;5002997;28;20046;-42
2023/10/16 02:59:58;;;;;;;4.82;1.02;;;7.70;99.90;;;;;;5003607;28;20034;-42
2023/10/16 03:02:27;;;;;;;5.03;2.00;;;7.70;99.90;;;;;;5003594;28;20038;-42
2023/10/16 03:04:54;;;;;;;5.60;1.30;;;7.70;99.90;;;;;;4985012;28;20827;-42
2023/10/16 03:07:20;;;;;;;4.55;1.38;;;7.80;99.90;;;;;;4984728;28;20093;-42
2023/10/16 03:09:49;;;;;;;7.65;1.40;;;7.80;99.90;;;;;;4985075;28;20046;-43
2023/10/16 03:12:15;;;;;;;6.72;1.38;;;7.80;99.90;;;;;;5003403;28;20139;-42
2023/10/16 03:15:01;;;;;;;4.78;1.15;;;7.90;99.90;;;;;;5002753;28;20447;-41
2023/10/16 03:17:36;;;;;;;6.13;1.48;;;7.90;99.90;;;;;;5003223;28;20050;-41
2023/10/16 03:20:09;;;;;;;4.72;1.50;;;7.90;99.90;;;;;;5002691;28;20046;-41
2023/10/16 03:22:34;;;;;;;5.45;1.75;;;8.00;99.90;;;;;;5004072;28;20084;-41
2023/10/16 03:25:00;;;;;;;5.95;1.58;;;8.00;99.90;;;;;;4984924;28;20120;-40
2023/10/16 03:27:28;;;;;;;4.68;1.60;;;8.00;99.90;;;;;;4984849;28;20073;-43
2023/10/16 03:29:58;;;;;;;4.75;1.80;;;8.00;99.90;;;;;;4986437;28;20096;-41
2023/10/16 03:32:24;;;;;;;5.18;2.25;;;7.90;99.90;;;;;;4984924;28;20042;-41
2023/10/16 03:34:57;;;;;;;7.35;1.90;;;7.90;99.90;;;;;;5000505;28;20085;-42
2023/10/16 03:37:24;;;;;;;4.53;1.48;;;8.00;99.90;;;;;;4964627;28;20054;-42
2023/10/16 03:39:56;;;;;;;7.90;2.28;;;8.00;99.90;;;;;;4982150;28;20044;-42
2023/10/16 03:42:23;;;;;;;5.57;1.63;;;7.90;99.90;;;;;;5002865;28;20041;-45
2023/10/16 03:44:48;;;;;;;5.93;2.53;;;7.90;99.90;;;;;;4983612;28;20505;-41
2023/10/16 03:47:14;;;;;;;6.90;1.95;;;7.90;99.90;;;;;;4984445;28;20064;-43
2023/10/16 03:49:41;;;;;;;5.40;1.83;;;7.80;99.90;;;;;;5002630;28;20045;-41
2023/10/16 03:52:08;;;;;;;3.47;1.48;;;7.80;99.90;;;;;;5001162;28;20049;-42
2023/10/16 03:54:35;;;;;;;5.47;2.08;;;7.60;99.90;;;;;;4984214;28;20512;-42
2023/10/16 03:57:09;;;;;;;7.22;2.72;;;7.60;99.90;;;;;;4984704;28;20503;-42
2023/10/16 03:59:38;;;;;;;4.72;1.70;;;7.60;99.90;;;;;;5002318;28;20045;-44
2023/10/16 04:02:04;;;;;;;5.13;1.70;;;7.50;99.90;;;;;;5001961;28;20442;-41
2023/10/16 04:04:30;;;;;;;5.22;1.80;;;7.60;99.90;;;;;;4983829;28;20680;-44
2023/10/16 04:06:57;;;;;;;5.63;1.80;;;7.60;99.90;;;;;;4967436;28;20049;-42
2023/10/16 04:09:33;;;;;;;6.40;1.70;;;7.60;99.90;;;;;;5001787;28;20038;-42
2023/10/16 04:12:02;;;;;;;8.85;2.88;;;7.70;99.90;;;;;;5001827;28;20053;-40
2023/10/16 04:14:50;;;;;;;6.65;1.55;;;7.70;99.90;;;;;;5001638;28;20046;-41
2023/10/16 04:17:18;;;;;;;6.82;1.75;;;7.70;99.90;;;;;;5001314;28;20429;-41
2023/10/16 04:19:53;;;;;;;7.90;2.08;;;7.70;99.90;;;;;;5001661;28;20037;-41
2023/10/16 04:22:23;;;;;;;5.95;1.48;;;7.80;99.90;;;;;;5001508;28;20393;-42
2023/10/16 04:24:54;;;;;;;4.05;1.80;;;7.80;99.90;;;;;;4967135;28;20046;-42
2023/10/16 04:27:29;;;;;;;5.95;2.03;;;7.90;99.90;;;;;;4983909;28;20062;-41
2023/10/16 04:34:55;;;;;;;8.73;3.35;;;7.90;99.90;;;;;;4982775;28;20062;-43
2023/10/16 04:48:06;;;;;;;6.53;2.55;;;8.00;99.90;;;;;;5000781;28;20349;-42
2023/10/16 05:08:38;;;;;;;7.22;4.22;;;7.60;99.90;;;;;;5000384;28;20057;-42
2023/10/16 05:16:36;;;;;;;8.15;4.88;;;7.50;99.90;;;;;;5000126;28;20077;-42
2023/10/16 05:19:46;;;;;;;11.95;5.20;;;7.50;99.90;;;;;;4982857;28;20121;-42
2023/10/16 06:16:22;;;;;;;8.52;3.20;;;8.00;99.90;;;;;;4982398;28;20125;-42
2023/10/16 06:18:49;;;;;;;10.32;3.38;;;8.00;99.90;;;;;;4999969;28;20044;-42
2023/10/16 06:21:15;;;;;;;8.25;3.88;;;8.00;99.90;;;;;;4990927;28;20437;-42
2023/10/16 06:23:51;;;;;;;6.70;4.13;;;8.10;99.90;;;;;;4985435;28;20072;-41
2023/10/16 06:26:18;;;;;;;8.68;4.25;;;8.10;99.90;;;;;;4982187;28;20046;-42
2023/10/16 06:28:47;;;;;;;7.90;4.25;;;8.10;99.90;;;;;;4999141;28;20049;-41
2023/10/16 06:31:25;;;;;;;11.13;5.82;;;8.20;99.90;;;;;;5000077;28;20535;-45
2023/10/16 06:33:56;;;;;;;13.93;6.07;;;8.20;99.90;;;;;;4994290;28;20170;-42
2023/10/16 06:36:23;;;;;;;11.23;4.97;;;8.30;99.90;;;;;;5000148;28;20120;-43
2023/10/16 06:38:51;;;;;;;9.55;4.38;;;8.30;99.90;;;;;;4979866;28;20042;-41
2023/10/16 06:41:20;;;;;;;8.10;3.97;;;8.30;99.90;;;;;;4999691;28;20046;-42
2023/10/16 06:43:47;;;;;;;8.45;3.28;;;8.40;99.90;;;;;;4982212;28;20516;-42
2023/10/16 06:46:23;;;;;;;9.00;3.45;;;8.40;99.90;;;;;;4982201;28;20052;-44
2023/10/16 06:48:51;;;;;;;7.43;3.33;;;8.40;99.90;;;;;;4966242;28;20049;-42
2023/10/16 06:51:17;;;;;;;8.57;4.00;;;8.40;99.90;;;;;;5000210;28;20088;-42
2023/10/16 06:53:44;;;;;;;7.15;3.30;;;8.50;99.90;;;;;;4998709;28;20242;-42
2023/10/16 06:56:14;;;;;;;5.82;3.75;;;8.50;99.90;;;;;;4984500;28;20140;-42
2023/10/16 06:58:40;;;;;;;7.97;3.08;;;8.60;99.90;;;;;;5002646;28;20052;-43
2023/10/16 07:01:06;;;;;;;6.32;2.85;;;8.60;99.90;;;;;;5003195;28;20324;-41
2023/10/16 07:03:33;;;;;;;9.63;4.20;;;8.60;99.90;;;;;;5002287;28;20140;-42
2023/10/16 07:05:59;;;;;;;8.43;4.53;;;8.70;99.90;;;;;;4984229;28;20101;-42
2023/10/16 07:08:25;;;;;;;8.48;3.78;;;8.70;99.90;;;;;;4983885;28;20401;-46
2023/10/16 07:10:55;;;;;;;9.15;4.20;;;8.70;99.90;;;;;;5001361;28;20126;-43
2023/10/16 07:13:27;;;;;;;7.10;3.92;;;8.70;99.90;;;;;;5004297;28;20045;-44
2023/10/16 07:16:11;;;;;;;5.03;2.70;;;8.70;99.90;;;;;;5001163;28;20045;-41
2023/10/16 07:18:42;;;;;;;9.65;3.42;;;8.70;99.90;;;;;;5002358;28;20540;-45
2023/10/16 07:21:08;;;;;;;9.07;3.80;;;8.80;99.90;;;;;;5003039;28;20124;-42
2023/10/16 07:23:35;;;;;;;6.18;2.90;;;8.70;99.90;;;;;;5002663;28;21401;-42
2023/10/16 07:26:05;;;;;;;10.30;3.67;;;8.80;99.90;;;;;;5002467;28;20598;-42
2023/10/16 07:28:31;;;;;;;9.90;3.92;;;8.80;99.90;;;;;;5001904;28;20041;-43
2023/10/16 07:30:58;;;;;;;10.50;3.55;;;8.80;99.90;;;;;;5002295;28;20045;-42
2023/10/16 07:33:24;;;;;;;9.52;3.97;;;8.90;99.90;;;;;;5001763;28;20038;-42
2023/10/16 07:35:51;;;;;;;4.63;1.90;;;9.00;99.90;;;;;;4984333;28;20386;-43
2023/10/16 07:38:19;;;;;;;9.45;3.50;;;9.00;99.90;;;;;;4993309;28;20054;-42
2023/10/16 07:40:52;;;;;;;10.38;3.80;;;9.10;99.90;;;;;;5002422;28;20045;-43
2023/10/16 07:43:26;;;;;;;7.72;3.30;;;9.10;99.90;;;;;;5002564;28;20449;-42
2023/10/16 07:48:40;;;;;;;10.82;3.72;;;9.30;99.90;;;;;;4970029;28;20049;-41
2023/10/16 07:51:07;;;;;;;8.68;3.58;;;9.40;99.90;;;;;;5002151;28;20100;-42
2023/10/16 07:53:36;;;;;;;8.85;2.40;;;9.50;99.90;;;;;;5002040;28;20468;-43
2023/10/16 07:56:03;;;;;;;9.85;2.70;;;9.60;99.90;;;;;;5001976;28;20126;-42
2023/10/16 07:58:47;;;;;;;4.88;2.65;;;9.60;99.90;;;;;;5001369;28;20057;-42
2023/10/16 08:03:41;;;;;;;7.68;3.35;;;9.80;99.90;;;;;;5001548;28;20053;-44
2023/10/16 08:06:12;;;;;;;8.18;3.00;;;9.80;99.90;;;;;;5001630;28;20041;-43
2023/10/16 08:08:42;;;;;;;8.88;3.17;;;9.90;99.90;;;;;;4983781;28;20057;-42
2023/10/16 08:11:13;;;;;;;9.52;3.35;;;10.00;99.90;;;;;;4989326;28;20041;-43
2023/10/16 08:13:46;;;;;;;8.05;2.88;;;10.10;99.90;;;;;;5001428;28;20060;-42
2023/10/16 08:16:22;;;;;;;5.72;3.08;;;10.20;99.90;;;;;;5002375;28;20386;-46
2023/10/16 08:18:52;;;;;;;8.70;3.10;;;10.30;99.90;;;;;;5000382;28;20046;-41
2023/10/16 08:21:25;;;;;;;8.95;3.22;;;10.40;99.90;;;;;;4997361;28;20512;-42
2023/10/16 08:23:56;;;;;;;9.88;2.95;;;10.50;99.90;;;;;;5001388;28;20204;-41
2023/10/16 08:26:29;;;;;;;8.02;2.92;;;10.60;99.90;;;;;;4993884;28;20038;-42
2023/10/16 08:31:44;;;;;;;7.97;1.98;;;10.70;99.90;;;;;;4995628;28;20206;-42
2023/10/16 08:34:20;;;;;;;6.93;1.90;;;10.90;99.90;;;;;;4983243;28;20052;-42
2023/10/16 08:36:52;;;;;;;8.15;1.80;;;10.90;99.90;;;;;;4981064;28;20045;-42
2023/10/16 08:39:19;;;;;;;8.63;1.77;;;10.90;99.90;;;;;;4977532;28;20046;-45
2023/10/16 08:41:51;;;;;;;7.85;1.80;;;10.90;99.90;;;;;;4990975;28;20120;-42
2023/10/16 08:44:18;;;;;;;9.95;2.10;;;10.90;99.90;;;;;;5006715;28;20453;-43
2023/10/16 08:47:11;;;;;;;7.05;2.63;;;10.90;99.90;;;;;;5008245;28;20156;-43
2023/10/16 08:49:37;;;;;;;11.48;2.60;;;10.90;99.90;;;;;;5000330;28;20511;-42
2023/10/16 08:52:17;;;;;;;7.80;2.13;;;10.90;99.90;;;;;;4982509;28;20532;-44
2023/10/16 08:57:28;;;;;;;11.45;2.03;;;11.00;99.90;;;;;;5000531;28;20209;-42
2023/10/16 08:59:58;;;;;;;9.30;1.60;;;11.00;99.90;;;;;;5001233;28;20037;-43
2023/10/16 09:02:25;;;;;;;9.27;2.00;;;11.10;99.90;;;;;;5000512;28;20038;-42
2023/10/16 09:04:54;;;;;;;10.05;1.67;;;11.20;99.90;;;;;;4981938;28;20444;-45
2023/10/16 09:07:20;;;;;;;6.72;1.55;;;11.30;99.90;;;;;;4999289;28;20436;-41
2023/10/16 09:09:49;;;;;;;8.60;1.83;;;11.30;99.90;;;;;;5000840;28;20042;-43
2023/10/16 09:12:28;;;;;;;7.53;1.52;;;11.40;99.90;;;;;;4997393;28;20042;-42
2023/10/16 09:15:05;;;;;;;8.73;1.50;;;11.40;99.90;;;;;;5000384;28;20141;-42
2023/10/16 09:17:33;;;;;;;9.30;2.03;;;11.40;99.90;;;;;;4998837;28;20112;-43
2023/10/16 09:19:59;;;;;;;8.35;1.75;;;11.40;99.90;;;;;;4997330;28;20049;-45
2023/10/16 09:22:29;;;;;;;9.13;2.35;;;11.50;99.90;;;;;;4999682;28;20412;-45
2023/10/16 09:24:58;;;;;;;9.65;1.88;;;11.50;99.90;;;;;;4981838;28;20046;-44
2023/10/16 09:27:30;;;;;;;8.70;2.00;;;11.60;99.90;;;;;;4998364;28;20050;-43
2023/10/16 09:29:58;;;;;;;7.55;1.70;;;11.60;99.90;;;;;;4982850;28;20132;-44
2023/10/16 09:32:36;;;;;;;8.95;2.30;;;11.60;99.90;;;;;;5000702;28;20396;-43
2023/10/16 09:35:06;;;;;;;6.35;1.60;;;11.70;99.90;;;;;;4999963;28;20072;-43
2023/10/16 09:37:35;;;;;;;9.57;2.17;;;11.80;99.90;;;;;;4994558;28;20039;-43
2023/10/16 09:40:19;;;;;;;7.40;1.98;;;11.90;99.90;;;;;;4983309;28;20082;-43
2023/10/16 09:43:05;;;;;;;7.72;1.90;;;11.90;99.90;;;;;;5000268;28;20141;-44
2023/10/16 09:45:33;;;;;;;9.32;2.30;;;12.00;99.90;;;;;;4982225;28;20382;-42
2023/10/16 09:48:07;;;;;;;6.55;2.05;;;12.20;99.90;;;;;;5000030;28;20405;-43
2023/10/16 09:50:37;;;;;;;4.35;1.77;;;12.30;99.90;;;;;;5000553;28;20042;-43
2023/10/16 09:53:07;;;;;;;8.38;2.38;;;12.40;99.90;;;;;;4982711;28;20050;-45
2023/10/16 09:55:39;;;;;;;7.15;2.25;;;12.50;99.90;;;;;;4975449;28;20092;-44
2023/10/16 09:58:09;;;;;;;7.13;1.60;;;12.50;99.90;;;;;;4968897;28;20053;-43
2023/10/16 10:00:39;;;;;;;7.97;1.90;;;12.40;99.90;;;;;;4982049;28;20042;-43
2023/10/16 10:03:07;;;;;;;6.80;2.03;;;12.30;99.90;;;;;;4982528;28;20203;-43
2023/10/16 10:05:48;;;;;;;10.15;1.70;;;12.30;99.90;;;;;;4981602;28;20073;-47
2023/10/16 10:08:27;;;;;;;5.78;1.48;;;12.30;99.90;;;;;;4999194;28;20562;-44
2023/10/16 10:11:26;;;;;;;7.05;1.70;;;12.30;99.90;;;;;;4999797;28;20384;-42
2023/10/16 10:14:11;;;;;;;6.07;1.77;;;12.30;99.90;;;;;;4998775;28;20053;-42
2023/10/16 10:16:46;;;;;;;4.85;1.85;;;12.30;99.90;;;;;;4978389;28;20049;-47
2023/10/16 10:19:23;;;;;;;6.00;1.77;;;12.40;99.90;;;;;;4976579;28;20053;-44
2023/10/16 10:21:56;;;;;;;5.90;1.75;;;12.50;99.90;;;;;;4976951;28;20038;-42
2023/10/16 10:24:23;;;;;;;9.03;1.47;;;12.50;99.90;;;;;;4981798;28;20050;-43
2023/10/16 10:26:49;;;;;;;7.07;2.00;;;12.50;99.90;;;;;;4999662;28;20080;-43
2023/10/16 10:29:16;;;;;;;5.55;1.77;;;12.50;99.90;;;;;;5001081;28;20056;-45
2023/10/16 10:31:45;;;;;;;5.75;2.33;;;12.60;99.90;;;;;;5004285;28;20077;-44
2023/10/16 10:34:23;;;;;;;11.88;2.17;;;12.60;99.90;;;;;;5003727;28;20037;-42
2023/10/16 10:36:53;;;;;;;7.97;1.73;;;12.70;99.90;;;;;;4985974;28;20560;-43
2023/10/16 10:39:21;;;;;;;4.93;1.38;;;12.80;99.90;;;;;;4996909;28;20050;-44
2023/10/16 10:41:48;;;;;;;7.45;1.77;;;12.90;99.90;;;;;;5003295;28;20041;-45
2023/10/16 10:44:15;;;;;;;9.32;2.38;;;13.00;99.90;;;;;;5003196;28;20069;-42
2023/10/16 10:46:49;;;;;;;7.38;1.77;;;12.90;99.90;;;;;;5002639;28;20034;-43
2023/10/16 10:49:15;;;;;;;5.35;1.40;;;12.80;99.90;;;;;;5001127;28;20042;-45
2023/10/16 10:51:45;;;;;;;5.95;1.80;;;12.80;99.90;;;;;;5003682;28;20033;-43
2023/10/16 10:54:15;;;;;;;8.25;2.20;;;12.80;99.90;;;;;;4968977;28;20137;-45
2023/10/16 10:56:51;;;;;;;9.70;1.98;;;12.80;99.90;;;;;;5002656;28;20513;-45
2023/10/16 10:59:41;;;;;;;7.00;1.77;;;12.70;99.90;;;;;;5000592;28;20202;-44
2023/10/16 11:04:58;;;;;;;6.60;1.45;;;12.70;99.90;;;;;;5001974;28;20038;-43
2023/10/16 11:07:59;;;;;;;9.18;2.38;;;12.80;99.90;;;;;;5000862;28;20041;-42
2023/10/16 11:10:24;;;;;;;6.90;1.42;;;12.90;99.90;;;;;;5002291;28;20050;-42
2023/10/16 11:12:50;;;;;;;6.95;1.42;;;13.00;99.90;;;;;;5002150;28;20048;-43
2023/10/16 11:15:16;;;;;;;4.10;1.73;;;13.10;99.90;;;;;;5001661;28;20083;-46
2023/10/16 11:17:44;;;;;;;6.25;1.60;;;13.10;99.90;;;;;;5001156;28;20041;-45
2023/10/16 11:22:45;;;;;;;5.97;2.03;;;13.10;99.90;;;;;;5001156;28;20085;-44
2023/10/16 11:25:13;;;;;;;5.55;1.48;;;13.20;99.90;;;;;;5000845;28;20143;-43
2023/10/16 11:27:45;;;;;;;8.23;2.00;;;13.20;99.90;;;;;;4983482;28;20054;-45
2023/10/16 11:30:12;;;;;;;6.05;1.60;;;13.30;99.90;;;;;;5001242;28;20536;-44
2023/10/16 11:32:47;;;;;;;10.50;1.65;;;13.40;99.90;;;;;;4984260;28;20081;-47
2023/10/16 11:35:17;;;;;;;11.25;2.08;;;13.40;99.90;;;;;;5001398;28;20046;-46
2023/10/16 11:37:52;;;;;;;5.95;1.60;;;13.40;99.90;;;;;;4995177;28;20034;-46
2023/10/16 11:40:18;;;;;;;9.90;2.00;;;13.30;99.90;;;;;;5001748;28;20041;-42
2023/10/16 11:42:48;;;;;;;6.40;1.50;;;13.20;99.90;;;;;;5001402;28;20029;-43
2023/10/16 11:45:20;;;;;;;6.53;1.50;;;13.30;99.90;;;;;;5001172;28;20050;-43
2023/10/16 11:50:41;;;;;;;5.68;1.70;;;13.30;99.90;;;;;;4999720;28;20128;-43
2023/10/16 11:53:09;;;;;;;5.18;1.40;;;13.20;99.90;;;;;;5000945;28;20053;-43
2023/10/16 11:55:38;;;;;;;8.50;1.63;;;13.30;99.90;;;;;;4982947;28;20461;-44
2023/10/16 11:58:07;;;;;;;7.25;1.42;;;13.20;99.90;;;;;;4995331;28;20560;-43
2023/10/16 12:00:35;;;;;;;7.10;1.65;;;13.30;99.90;;;;;;5001226;28;20041;-44
2023/10/16 12:03:07;;;;;;;9.10;2.00;;;13.40;99.90;;;;;;4983083;28;20053;-43
2023/10/16 12:05:37;;;;;;;4.07;1.40;;;13.40;99.90;;;;;;4999736;28;20180;-42
2023/10/16 12:08:07;;;;;;;4.35;1.20;;;13.40;99.90;;;;;;5000640;28;20512;-43
2023/10/16 12:10:33;;;;;;;8.30;1.75;;;13.40;99.90;;;;;;4982312;28;20057;-43
2023/10/16 12:13:00;;;;;;;14.65;2.13;;;13.50;99.90;;;;;;5000843;28;20038;-44
2023/10/16 12:15:26;;;;;;;6.82;1.35;;;13.50;99.90;;;;;;5000888;28;20046;-43
2023/10/16 12:17:55;;;;;;;7.72;2.15;;;13.40;99.90;;;;;;4982946;28;20509;-43
2023/10/16 12:20:27;;;;;;;6.88;2.08;;;13.40;99.90;;;;;;4998592;28;20038;-43
2023/10/16 12:22:57;;;;;;;6.35;1.50;;;13.40;99.90;;;;;;5000513;28;20088;-44
2023/10/16 12:25:23;;;;;;;9.90;2.28;;;13.40;99.90;;;;;;4999637;28;20684;-43
2023/10/16 12:27:52;;;;;;;4.03;1.17;;;13.50;99.90;;;;;;5000298;28;20061;-42
2023/10/16 12:30:19;;;;;;;4.25;1.65;;;13.60;99.90;;;;;;4982885;28;20045;-42
2023/10/16 12:32:45;;;;;;;10.70;1.80;;;13.70;99.90;;;;;;5001231;28;20038;-44
2023/10/16 12:35:17;;;;;;;5.28;1.50;;;13.80;99.90;;;;;;4983671;28;20505;-45
2023/10/16 12:37:44;;;;;;;5.22;1.35;;;13.80;99.90;;;;;;4997567;28;20081;-43
2023/10/16 12:40:33;;;;;;;6.53;1.40;;;13.90;99.90;;;;;;5000848;28;20041;-43
2023/10/16 12:43:00;;;;;;;4.65;1.58;;;13.80;99.90;;;;;;5001486;28;20081;-46
2023/10/16 12:45:27;;;;;;;5.80;1.90;;;13.80;99.90;;;;;;5000326;28;20045;-44
2023/10/16 12:47:57;;;;;;;6.15;1.45;;;13.80;99.90;;;;;;4982472;28;20610;-44
2023/10/16 12:50:23;;;;;;;7.82;1.58;;;13.90;99.90;;;;;;4983701;28;20222;-42
2023/10/16 12:52:57;;;;;;;4.45;1.50;;;13.80;99.90;;;;;;4999417;28;20041;-46
2023/10/16 12:55:23;;;;;;;;;;;13.70;99.90;;;;;;4998899;28;20042;-44
2023/10/16 12:57:55;;;;;;;7.28;1.75;;;13.50;99.90;;;;;;4999905;28;19979;-43
2023/10/16 13:00:23;;;;;;;8.53;2.03;;;13.60;99.90;;;;;;4966155;28;20121;-44
2023/10/16 13:02:55;;;;;;;3.00;1.20;;;13.60;99.90;;;;;;5000822;28;20042;-45
2023/10/16 13:05:24;;;;;;;7.18;1.40;;;13.40;99.90;;;;;;5000177;28;20038;-46
2023/10/16 13:07:50;;;;;;;16.88;2.40;;;13.40;99.90;;;;;;4987062;28;20060;-44
2023/10/16 13:10:20;;;;;;;9.25;1.70;;;13.40;99.90;;;;;;4999031;28;20517;-44
2023/10/16 13:12:47;;;;;;;6.90;1.50;;;13.20;99.90;;;;;;5001128;28;20124;-43
2023/10/16 13:15:24;;;;;;;5.50;1.45;;;13.10;99.90;;;;;;4983308;28;20557;-44
2023/10/16 13:17:50;;;;;;;8.02;1.60;;;13.00;99.90;;;;;;4982777;28;20065;-43
2023/10/16 13:20:19;;;;;;;6.57;1.50;;;12.80;99.90;;;;;;5001762;28;20042;-42
2023/10/16 13:22:54;;;;;;;12.13;1.80;;;12.90;99.90;;;;;;4983475;28;20084;-43
2023/10/16 13:25:34;;;;;;;2.55;1.17;;;12.80;99.90;;;;;;5000886;28;20046;-43
2023/10/16 13:28:00;;;;;;;9.27;1.83;;;12.70;99.90;;;;;;5000789;28;20594;-46
2023/10/16 13:30:26;;;;;;;13.70;2.15;;;12.70;99.90;;;;;;4983410;28;20148;-42
2023/10/16 13:32:52;;;;;;;9.85;1.52;;;12.70;99.90;;;;;;5001370;28;20117;-42
2023/10/16 13:35:20;;;;;;;7.00;1.60;;;12.80;99.90;;;;;;4982994;28;20041;-46
2023/10/16 13:37:47;;;;;;;7.45;1.80;;;12.90;99.90;;;;;;4995037;28;20069;-44
2023/10/16 13:40:21;;;;;;;9.00;2.20;;;12.90;99.90;;;;;;5001314;28;20486;-43
2023/10/16 13:42:50;;;;;;;7.15;1.83;;;12.90;99.90;;;;;;5001138;28;20432;-42
2023/10/16 13:45:17;;;;;;;6.57;1.35;;;12.90;99.90;;;;;;5000573;28;20041;-44
2023/10/16 13:47:46;;;;;;;7.65;1.50;;;13.00;99.90;;;;;;4982246;28;20499;-44
2023/10/16 13:50:13;;;;;;;9.18;1.67;;;13.00;99.90;;;;;;4983168;28;20489;-43
2023/10/16 13:52:46;;;;;;;9.77;2.53;;;13.00;99.90;;;;;;5001179;28;20073;-44
2023/10/16 13:55:13;;;;;;;6.82;1.98;;;13.00;99.90;;;;;;5000539;28;20044;-43
2023/10/16 13:57:42;;;;;;;7.75;2.00;;;13.00;99.90;;;;;;5000378;28;20060;-44
2023/10/16 14:00:12;;;;;;;7.63;1.55;;;13.00;99.90;;;;;;5000796;28;20639;-42
2023/10/16 14:02:37;;;;;;;5.80;1.58;;;13.00;99.90;;;;;;4999188;28;20042;-42
2023/10/16 14:05:06;;;;;;;9.13;1.73;;;12.90;99.90;;;;;;4999881;28;20092;-43
2023/10/16 14:07:36;;;;;;;7.32;1.40;;;12.80;99.90;;;;;;4982361;28;20049;-45
2023/10/16 14:10:03;;;;;;;7.13;1.60;;;12.80;99.90;;;;;;5000135;28;20647;-43
2023/10/16 14:12:32;;;;;;;5.57;1.77;;;12.70;99.90;;;;;;4981900;28;20046;-43
2023/10/16 14:14:57;;;;;;;7.45;1.85;;;12.70;99.90;;;;;;5002838;28;20038;-44
2023/10/16 14:17:24;;;;;;;5.97;1.50;;;12.70;99.90;;;;;;4999997;28;20041;-42
2023/10/16 14:19:49;;;;;;;5.95;1.80;;;12.80;99.90;;;;;;5001035;28;20041;-44
2023/10/16 14:22:19;;;;;;;6.65;1.75;;;12.70;99.90;;;;;;5000341;28;20038;-46
2023/10/16 14:24:44;;;;;;;8.07;1.42;;;12.70;99.90;;;;;;4999283;28;20041;-44
2023/10/16 14:27:18;;;;;;;9.75;1.60;;;12.70;99.90;;;;;;4981466;28;20053;-43
2023/10/16 14:29:44;;;;;;;;;;;12.70;99.90;;;;;;5000688;28;20073;-43
2023/10/16 14:32:10;;;;;;;6.30;1.50;;;12.60;99.90;;;;;;5000104;28;20384;-44
2023/10/16 14:34:36;;;;;;;10.45;2.72;;;12.60;99.90;;;;;;5000602;28;20437;-44
2023/10/16 14:37:05;;;;;;;7.25;1.80;;;12.50;99.90;;;;;;4980415;28;20049;-45
2023/10/16 14:39:31;;;;;;;7.22;2.35;;;12.50;99.90;;;;;;4998242;28;20100;-44
2023/10/16 14:42:05;;;;;;;7.88;1.40;;;12.40;99.90;;;;;;4982198;28;20523;-47
2023/10/16 14:44:31;;;;;;;7.03;1.67;;;12.40;99.90;;;;;;4998903;28;20116;-42
2023/10/16 14:46:56;;;;;;;8.27;1.75;;;12.40;99.90;;;;;;4981650;28;20512;-44
2023/10/16 14:49:25;;;;;;;6.32;2.30;;;12.40;99.90;;;;;;4982475;28;20042;-43
2023/10/16 14:51:51;;;;;;;4.97;1.40;;;12.30;99.90;;;;;;4982128;28;20553;-42
2023/10/16 14:54:18;;;;;;;7.63;1.83;;;12.30;99.90;;;;;;4981577;28;20042;-47
2023/10/16 14:56:46;;;;;;;5.10;1.20;;;12.30;99.90;;;;;;4999415;28;20050;-43
2023/10/16 14:59:28;;;;;;;10.43;3.53;;;12.20;99.90;;;;;;5000003;28;20547;-45